createdAt,value
2022-11-29T00:00:53.620Z,6.71
2022-11-29T00:01:53.754Z,6.70
2022-11-29T00:02:53.709Z,6.69
2022-11-29T00:03:53.584Z,6.70
2022-11-29T00:04:53.573Z,6.70
2022-11-29T00:05:53.563Z,6.70
2022-11-29T00:06:53.552Z,6.70
2022-11-29T00:07:53.605Z,6.70
2022-11-29T00:08:53.527Z,6.69
2022-11-29T00:09:53.568Z,6.71
2022-11-29T00:10:53.505Z,6.69
2022-11-29T00:11:53.495Z,6.70
2022-11-29T00:12:53.503Z,6.70
2022-11-29T00:13:53.493Z,6.70
2022-11-29T00:14:53.476Z,6.64
2022-11-29T00:15:53.463Z,6.64
2022-11-29T00:16:53.491Z,6.66
2022-11-29T00:17:53.436Z,6.64
2022-11-29T00:18:53.419Z,6.64
2022-11-29T00:19:53.407Z,6.62
2022-11-29T00:20:53.395Z,6.61
2022-11-29T00:21:53.408Z,6.59
2022-11-29T00:22:53.378Z,6.62
2022-11-29T00:23:53.378Z,6.61
2022-11-29T00:24:53.356Z,6.58
2022-11-29T00:25:53.374Z,6.56
2022-11-29T00:26:53.336Z,6.59
2022-11-29T00:27:53.351Z,6.58
2022-11-29T00:28:53.319Z,6.56
2022-11-29T00:29:53.307Z,6.56
2022-11-29T00:30:53.335Z,6.55
2022-11-29T00:31:53.510Z,6.56
2022-11-29T00:32:53.260Z,6.55
2022-11-29T00:33:53.265Z,6.55
2022-11-29T00:34:53.259Z,6.52
2022-11-29T00:35:53.250Z,6.52
2022-11-29T00:36:53.233Z,6.52
2022-11-29T00:37:53.222Z,6.54
2022-11-29T00:38:53.201Z,6.51
2022-11-29T00:39:53.204Z,6.54
2022-11-29T00:40:53.180Z,6.52
2022-11-29T00:41:53.191Z,6.49
2022-11-29T00:42:53.170Z,6.52
2022-11-29T00:43:53.165Z,6.51
2022-11-29T00:44:53.155Z,6.51
2022-11-29T00:45:53.237Z,6.49
2022-11-29T00:46:53.144Z,6.49
2022-11-29T00:47:53.114Z,6.49
2022-11-29T00:48:53.117Z,6.51
2022-11-29T00:49:53.094Z,6.51
2022-11-29T00:50:53.075Z,6.48
2022-11-29T00:51:53.065Z,6.48
2022-11-29T00:52:53.049Z,6.48
2022-11-29T00:53:53.061Z,6.51
2022-11-29T00:54:53.036Z,6.46
2022-11-29T00:55:53.040Z,6.48
2022-11-29T00:56:53.023Z,6.48
2022-11-29T00:57:53.234Z,6.49
2022-11-29T00:58:52.984Z,6.44
2022-11-29T00:59:53.185Z,6.48
2022-11-29T01:00:53.039Z,6.49
2022-11-29T01:01:52.965Z,6.48
2022-11-29T01:02:52.961Z,6.46
2022-11-29T01:03:52.948Z,6.48
2022-11-29T01:04:52.918Z,6.48
2022-11-29T01:05:52.918Z,6.43
2022-11-29T01:06:52.909Z,6.46
2022-11-29T01:07:52.983Z,6.46
2022-11-29T01:08:52.888Z,6.46
2022-11-29T01:09:52.879Z,6.49
2022-11-29T01:10:52.860Z,6.49
2022-11-29T01:11:52.861Z,6.48
2022-11-29T01:12:52.831Z,6.46
2022-11-29T01:13:52.830Z,6.48
2022-11-29T01:14:52.831Z,6.48
2022-11-29T01:15:53.620Z,6.48
2022-11-29T01:16:52.825Z,6.49
2022-11-29T01:17:52.792Z,6.52
2022-11-29T01:18:52.774Z,6.51
2022-11-29T01:19:52.771Z,6.52
2022-11-29T01:20:52.752Z,6.49
2022-11-29T01:21:52.752Z,6.52
2022-11-29T01:22:52.728Z,6.52
2022-11-29T01:23:52.730Z,6.49
2022-11-29T01:24:52.762Z,6.49
2022-11-29T01:25:52.713Z,6.51
2022-11-29T01:26:52.693Z,6.49
2022-11-29T01:27:52.692Z,6.49
2022-11-29T01:28:52.763Z,6.51
2022-11-29T01:29:52.663Z,6.49
2022-11-29T01:30:52.674Z,6.43
2022-11-29T01:31:52.642Z,6.43
2022-11-29T01:32:52.625Z,6.46
2022-11-29T01:33:52.731Z,6.44
2022-11-29T01:34:52.597Z,6.46
2022-11-29T01:35:52.604Z,6.44
2022-11-29T01:36:52.586Z,6.44
2022-11-29T01:37:53.395Z,6.43
2022-11-29T01:38:52.556Z,6.44
2022-11-29T01:39:52.566Z,6.41
2022-11-29T01:40:52.534Z,6.41
2022-11-29T01:41:52.537Z,6.40
2022-11-29T01:42:52.516Z,6.41
2022-11-29T01:43:52.511Z,6.40
2022-11-29T01:44:52.489Z,6.40
2022-11-29T01:45:52.531Z,6.40
2022-11-29T01:46:52.475Z,6.40
2022-11-29T01:47:52.477Z,6.43
2022-11-29T01:48:52.438Z,6.41
2022-11-29T01:49:52.449Z,6.40
2022-11-29T01:50:52.431Z,6.40
2022-11-29T01:51:52.430Z,6.40
2022-11-29T01:52:52.407Z,6.38
2022-11-29T01:53:52.401Z,6.36
2022-11-29T01:54:52.378Z,6.37
2022-11-29T01:55:52.438Z,6.37
2022-11-29T01:56:52.370Z,6.34
2022-11-29T01:57:52.362Z,6.34
2022-11-29T01:58:52.346Z,6.34
2022-11-29T01:59:52.337Z,6.33
2022-11-29T02:00:52.356Z,6.33
2022-11-29T02:01:52.313Z,6.31
2022-11-29T02:02:52.384Z,6.33
2022-11-29T02:03:52.319Z,6.31
2022-11-29T02:04:52.281Z,6.34
2022-11-29T02:05:52.281Z,6.33
2022-11-29T02:06:52.271Z,6.31
2022-11-29T02:07:52.307Z,6.33
2022-11-29T02:08:52.233Z,6.33
2022-11-29T02:09:52.232Z,6.33
2022-11-29T02:10:52.493Z,6.33
2022-11-29T02:11:52.203Z,6.33
2022-11-29T02:12:52.203Z,6.31
2022-11-29T02:13:52.193Z,6.31
2022-11-29T02:14:52.164Z,6.34
2022-11-29T02:15:52.235Z,6.30
2022-11-29T02:16:56.394Z,6.30
2022-11-29T02:17:52.164Z,6.28
2022-11-29T02:18:52.125Z,6.28
2022-11-29T02:19:52.938Z,6.30
2022-11-29T02:20:52.535Z,6.28
2022-11-29T02:21:52.106Z,6.28
2022-11-29T02:22:52.086Z,6.28
2022-11-29T02:23:52.101Z,6.25
2022-11-29T02:24:52.360Z,6.25
2022-11-29T02:25:52.066Z,6.25
2022-11-29T02:26:52.028Z,6.22
2022-11-29T02:27:52.046Z,6.21
2022-11-29T02:28:52.016Z,6.21
2022-11-29T02:29:52.016Z,6.19
2022-11-29T02:30:52.071Z,6.22
2022-11-29T02:31:51.988Z,6.21
2022-11-29T02:32:51.968Z,6.21
2022-11-29T02:33:51.969Z,6.19
2022-11-29T02:34:51.976Z,6.19
2022-11-29T02:35:51.949Z,6.21
2022-11-29T02:36:51.938Z,6.18
2022-11-29T02:37:51.929Z,6.17
2022-11-29T02:38:51.910Z,6.18
2022-11-29T02:39:51.953Z,6.17
2022-11-29T02:40:51.931Z,6.19
2022-11-29T02:41:51.894Z,6.18
2022-11-29T02:42:56.499Z,6.19
2022-11-29T02:43:52.891Z,6.21
2022-11-29T02:44:51.851Z,6.25
2022-11-29T02:45:51.932Z,6.22
2022-11-29T02:46:51.828Z,6.21
2022-11-29T02:47:51.824Z,6.21
2022-11-29T02:48:51.852Z,6.22
2022-11-29T02:49:51.801Z,6.21
2022-11-29T02:50:52.591Z,6.21
2022-11-29T02:51:51.790Z,6.22
2022-11-29T02:52:51.760Z,6.25
2022-11-29T02:53:51.763Z,6.21
2022-11-29T02:54:51.753Z,6.25
2022-11-29T02:55:51.769Z,6.21
2022-11-29T02:56:51.722Z,6.27
2022-11-29T02:57:51.733Z,6.22
2022-11-29T02:58:51.704Z,6.22
2022-11-29T02:59:51.694Z,6.21
2022-11-29T03:00:51.685Z,6.22
2022-11-29T03:01:52.330Z,6.22
2022-11-29T03:02:51.762Z,6.19
2022-11-29T03:03:51.655Z,6.19
2022-11-29T03:04:51.635Z,6.17
2022-11-29T03:05:51.634Z,6.18
2022-11-29T03:06:51.620Z,6.17
2022-11-29T03:07:51.658Z,6.19
2022-11-29T03:08:51.595Z,6.19
2022-11-29T03:09:51.576Z,6.19
2022-11-29T03:10:51.607Z,6.19
2022-11-29T03:11:51.568Z,6.19
2022-11-29T03:12:51.556Z,6.18
2022-11-29T03:13:51.537Z,6.17
2022-11-29T03:14:51.539Z,6.18
2022-11-29T03:15:51.586Z,6.19
2022-11-29T03:16:51.615Z,6.25
2022-11-29T03:17:51.508Z,6.21
2022-11-29T03:18:51.497Z,6.22
2022-11-29T03:19:51.478Z,6.19
2022-11-29T03:20:51.468Z,6.22
2022-11-29T03:21:51.448Z,6.19
2022-11-29T03:22:51.515Z,6.19
2022-11-29T03:23:51.451Z,6.21
2022-11-29T03:24:51.431Z,6.18
2022-11-29T03:25:51.411Z,6.21
2022-11-29T03:26:51.410Z,6.18
2022-11-29T03:27:51.389Z,6.18
2022-11-29T03:28:51.770Z,6.17
2022-11-29T03:29:51.380Z,6.19
2022-11-29T03:30:51.412Z,6.17
2022-11-29T03:31:51.343Z,6.15
2022-11-29T03:32:51.404Z,6.17
2022-11-29T03:33:51.338Z,6.21
2022-11-29T03:34:55.774Z,6.19
2022-11-29T03:35:52.321Z,6.19
2022-11-29T03:36:51.336Z,6.18
2022-11-29T03:37:51.280Z,6.18
2022-11-29T03:38:51.273Z,6.17
2022-11-29T03:39:51.253Z,6.19
2022-11-29T03:40:51.263Z,6.17
2022-11-29T03:41:51.304Z,6.17
2022-11-29T03:42:51.382Z,6.19
2022-11-29T03:43:51.273Z,6.19
2022-11-29T03:44:51.215Z,6.21
2022-11-29T03:45:51.351Z,6.21
2022-11-29T03:46:51.235Z,6.22
2022-11-29T03:47:51.183Z,6.21
2022-11-29T03:48:51.175Z,6.21
2022-11-29T03:49:51.296Z,6.21
2022-11-29T03:50:51.957Z,6.22
2022-11-29T03:51:51.126Z,6.21
2022-11-29T03:52:51.179Z,6.22
2022-11-29T03:53:51.109Z,6.21
2022-11-29T03:54:51.906Z,6.21
2022-11-29T03:55:51.096Z,6.22
2022-11-29T03:56:51.085Z,6.22
2022-11-29T03:57:51.074Z,6.21
2022-11-29T03:58:51.062Z,6.25
2022-11-29T03:59:51.043Z,6.21
2022-11-29T04:00:51.057Z,6.22
2022-11-29T04:01:51.048Z,6.25
2022-11-29T04:02:51.096Z,6.25
2022-11-29T04:03:50.998Z,6.27
2022-11-29T04:04:50.998Z,6.27
2022-11-29T04:05:50.978Z,6.25
2022-11-29T04:06:50.978Z,6.22
2022-11-29T04:07:51.029Z,6.27
2022-11-29T04:08:50.960Z,6.27
2022-11-29T04:09:50.939Z,6.28
2022-11-29T04:10:50.939Z,6.30
2022-11-29T04:11:50.937Z,6.30
2022-11-29T04:12:50.910Z,6.31
2022-11-29T04:13:50.890Z,6.30
2022-11-29T04:14:51.700Z,6.30
2022-11-29T04:15:50.978Z,6.28
2022-11-29T04:16:50.884Z,6.28
2022-11-29T04:17:50.882Z,6.27
2022-11-29T04:18:50.852Z,6.27
2022-11-29T04:19:50.826Z,6.27
2022-11-29T04:20:50.822Z,6.30
2022-11-29T04:21:50.811Z,6.28
2022-11-29T04:22:51.613Z,6.30
2022-11-29T04:23:50.783Z,6.28
2022-11-29T04:24:50.788Z,6.27
2022-11-29T04:25:50.762Z,6.28
2022-11-29T04:26:51.173Z,6.27
2022-11-29T04:27:50.734Z,6.30
2022-11-29T04:28:50.752Z,6.33
2022-11-29T04:29:50.743Z,6.30
2022-11-29T04:30:50.753Z,6.33
2022-11-29T04:31:52.155Z,6.33
2022-11-29T04:32:50.693Z,6.34
2022-11-29T04:33:50.674Z,6.36
2022-11-29T04:34:50.675Z,6.36
2022-11-29T04:35:51.474Z,6.34
2022-11-29T04:36:50.663Z,6.36
2022-11-29T04:37:50.625Z,6.34
2022-11-29T04:38:50.645Z,6.36
2022-11-29T04:39:50.796Z,6.36
2022-11-29T04:40:50.613Z,6.34
2022-11-29T04:41:50.599Z,6.34
2022-11-29T04:42:50.586Z,6.34
2022-11-29T04:43:50.565Z,6.33
2022-11-29T04:44:50.599Z,6.36
2022-11-29T04:45:50.555Z,6.33
2022-11-29T04:46:50.576Z,6.34
2022-11-29T04:47:50.526Z,6.33
2022-11-29T04:48:50.538Z,6.34
2022-11-29T04:49:50.619Z,6.36
2022-11-29T04:50:50.509Z,6.34
2022-11-29T04:51:50.499Z,6.34
2022-11-29T04:52:50.478Z,6.31
2022-11-29T04:53:50.469Z,6.36
2022-11-29T04:54:50.629Z,6.36
2022-11-29T04:55:51.250Z,6.33
2022-11-29T04:56:50.436Z,6.33
2022-11-29T04:57:50.419Z,6.33
2022-11-29T04:58:50.410Z,6.33
2022-11-29T04:59:50.400Z,6.33
2022-11-29T05:00:50.408Z,6.31
2022-11-29T05:01:50.463Z,6.34
2022-11-29T05:02:50.510Z,6.31
2022-11-29T05:03:55.539Z,6.33
2022-11-29T05:04:51.359Z,6.33
2022-11-29T05:05:50.333Z,6.31
2022-11-29T05:06:50.339Z,6.31
2022-11-29T05:07:50.390Z,6.30
2022-11-29T05:08:50.314Z,6.31
2022-11-29T05:09:50.303Z,6.28
2022-11-29T05:10:50.293Z,6.30
2022-11-29T05:11:50.272Z,6.27
2022-11-29T05:12:50.273Z,6.28
2022-11-29T05:13:50.243Z,6.25
2022-11-29T05:14:50.244Z,6.27
2022-11-29T05:15:50.277Z,6.22
2022-11-29T05:16:50.236Z,6.22
2022-11-29T05:17:50.205Z,6.27
2022-11-29T05:18:50.204Z,6.27
2022-11-29T05:19:50.213Z,6.25
2022-11-29T05:20:50.185Z,6.27
2022-11-29T05:21:50.164Z,6.28
2022-11-29T05:22:50.205Z,6.21
2022-11-29T05:23:50.155Z,6.25
2022-11-29T05:24:50.155Z,6.25
2022-11-29T05:25:50.117Z,6.30
2022-11-29T05:26:50.118Z,6.30
2022-11-29T05:27:50.099Z,6.30
2022-11-29T05:28:50.115Z,6.30
2022-11-29T05:29:50.175Z,6.30
2022-11-29T05:30:50.902Z,6.28
2022-11-29T05:31:50.084Z,6.30
2022-11-29T05:32:50.057Z,6.33
2022-11-29T05:33:50.027Z,6.30
2022-11-29T05:34:50.660Z,6.33
2022-11-29T05:35:50.037Z,6.30
2022-11-29T05:36:50.021Z,6.30
2022-11-29T05:37:49.989Z,6.33
2022-11-29T05:38:50.009Z,6.30
2022-11-29T05:39:49.969Z,6.30
2022-11-29T05:40:49.969Z,6.30
2022-11-29T05:41:49.960Z,6.30
2022-11-29T05:42:49.949Z,6.28
2022-11-29T05:43:49.929Z,6.28
2022-11-29T05:44:49.920Z,6.31
2022-11-29T05:45:49.909Z,6.30
2022-11-29T05:46:49.983Z,6.31
2022-11-29T05:47:49.881Z,6.31
2022-11-29T05:48:49.897Z,6.30
2022-11-29T05:49:49.865Z,6.34
2022-11-29T05:50:50.671Z,6.33
2022-11-29T05:51:49.833Z,6.34
2022-11-29T05:52:49.843Z,6.30
2022-11-29T05:53:49.814Z,6.30
2022-11-29T05:54:49.812Z,6.33
2022-11-29T05:55:49.802Z,6.28
2022-11-29T05:56:49.812Z,6.30
2022-11-29T05:57:49.781Z,6.31
2022-11-29T05:58:49.873Z,6.30
2022-11-29T05:59:49.750Z,6.31
2022-11-29T06:00:49.756Z,6.28
2022-11-29T06:01:49.739Z,6.27
2022-11-29T06:02:50.568Z,6.25
2022-11-29T06:03:49.744Z,6.27
2022-11-29T06:04:49.806Z,6.27
2022-11-29T06:05:49.690Z,6.21
2022-11-29T06:06:50.495Z,6.22
2022-11-29T06:07:49.698Z,6.22
2022-11-29T06:08:49.675Z,6.21
2022-11-29T06:09:49.645Z,6.22
2022-11-29T06:10:49.647Z,6.17
2022-11-29T06:11:49.630Z,6.21
2022-11-29T06:12:49.639Z,6.17
2022-11-29T06:13:49.605Z,6.19
2022-11-29T06:14:49.615Z,6.18
2022-11-29T06:15:49.619Z,6.18
2022-11-29T06:16:49.577Z,6.15
2022-11-29T06:17:49.566Z,6.17
2022-11-29T06:18:49.560Z,6.15
2022-11-29T06:19:49.546Z,6.17
2022-11-29T06:20:49.538Z,6.17
2022-11-29T06:21:49.528Z,6.15
2022-11-29T06:22:49.518Z,6.17
2022-11-29T06:23:49.502Z,6.18
2022-11-29T06:24:49.491Z,6.17
2022-11-29T06:25:49.481Z,6.18
2022-11-29T06:26:49.490Z,6.17
2022-11-29T06:27:49.464Z,6.18
2022-11-29T06:28:49.458Z,6.17
2022-11-29T06:29:49.431Z,6.15
2022-11-29T06:30:49.448Z,6.18
2022-11-29T06:31:49.590Z,6.19
2022-11-29T06:32:49.423Z,6.18
2022-11-29T06:33:49.383Z,6.19
2022-11-29T06:34:49.390Z,6.21
2022-11-29T06:35:49.805Z,6.17
2022-11-29T06:36:49.364Z,6.17
2022-11-29T06:37:49.453Z,6.19
2022-11-29T06:38:49.345Z,6.18
2022-11-29T06:39:49.330Z,6.17
2022-11-29T06:40:49.339Z,6.15
2022-11-29T06:41:49.305Z,6.17
2022-11-29T06:42:49.295Z,6.15
2022-11-29T06:43:49.304Z,6.15
2022-11-29T06:44:49.286Z,6.15
2022-11-29T06:45:49.253Z,6.15
2022-11-29T06:46:49.328Z,6.15
2022-11-29T06:47:49.242Z,6.15
2022-11-29T06:48:49.259Z,6.14
2022-11-29T06:49:49.224Z,6.14
2022-11-29T06:50:49.212Z,6.17
2022-11-29T06:51:49.194Z,6.17
2022-11-29T06:52:49.185Z,6.17
2022-11-29T06:53:49.176Z,6.17
2022-11-29T06:54:49.177Z,6.17
2022-11-29T06:55:49.157Z,6.17
2022-11-29T06:56:49.152Z,6.19
2022-11-29T06:57:49.126Z,6.18
2022-11-29T06:58:49.126Z,6.18
2022-11-29T06:59:49.120Z,6.19
2022-11-29T07:00:49.156Z,6.22
2022-11-29T07:01:49.118Z,6.21
2022-11-29T07:02:49.088Z,6.19
2022-11-29T07:03:49.069Z,6.21
2022-11-29T07:04:49.500Z,6.19
2022-11-29T07:05:49.145Z,6.25
2022-11-29T07:06:49.038Z,6.25
2022-11-29T07:07:49.098Z,6.22
2022-11-29T07:08:49.839Z,6.22
2022-11-29T07:09:49.009Z,6.22
2022-11-29T07:10:49.047Z,6.21
2022-11-29T07:11:48.980Z,6.25
2022-11-29T07:12:48.974Z,6.21
2022-11-29T07:13:48.981Z,6.22
2022-11-29T07:14:48.964Z,6.27
2022-11-29T07:15:48.989Z,6.27
2022-11-29T07:16:54.430Z,6.21
2022-11-29T07:17:49.921Z,6.22
2022-11-29T07:18:48.901Z,6.25
2022-11-29T07:19:48.919Z,6.25
2022-11-29T07:20:48.890Z,6.28
2022-11-29T07:21:49.001Z,6.25
2022-11-29T07:22:48.872Z,6.27
2022-11-29T07:23:48.862Z,6.22
2022-11-29T07:24:48.844Z,6.27
2022-11-29T07:25:48.841Z,6.30
2022-11-29T07:26:48.822Z,6.28
2022-11-29T07:27:48.921Z,6.27
2022-11-29T07:28:48.807Z,6.31
2022-11-29T07:29:48.793Z,6.33
2022-11-29T07:30:48.783Z,6.31
2022-11-29T07:31:48.832Z,6.30
2022-11-29T07:32:50.890Z,6.33
2022-11-29T07:33:48.780Z,6.28
2022-11-29T07:34:48.849Z,6.30
2022-11-29T07:35:48.734Z,6.31
2022-11-29T07:36:48.715Z,6.33
2022-11-29T07:37:48.705Z,6.30
2022-11-29T07:38:48.688Z,6.30
2022-11-29T07:39:48.986Z,6.30
2022-11-29T07:40:48.682Z,6.28
2022-11-29T07:41:48.667Z,6.27
2022-11-29T07:42:48.656Z,6.28
2022-11-29T07:43:48.656Z,6.31
2022-11-29T07:44:48.632Z,6.33
2022-11-29T07:45:48.637Z,6.31
2022-11-29T07:46:48.699Z,6.31
2022-11-29T07:47:48.598Z,6.31
2022-11-29T07:48:49.395Z,6.30
2022-11-29T07:49:48.579Z,6.31
2022-11-29T07:50:48.570Z,6.30
2022-11-29T07:51:48.570Z,6.33
2022-11-29T07:52:48.540Z,6.30
2022-11-29T07:53:48.541Z,6.34
2022-11-29T07:54:48.635Z,6.31
2022-11-29T07:55:48.542Z,6.33
2022-11-29T07:56:48.499Z,6.31
2022-11-29T07:57:49.322Z,6.33
2022-11-29T07:58:48.574Z,6.34
2022-11-29T07:59:48.480Z,6.37
2022-11-29T08:00:48.542Z,6.36
2022-11-29T08:01:48.533Z,6.37
2022-11-29T08:02:48.817Z,6.37
2022-11-29T08:03:48.433Z,6.37
2022-11-29T08:04:48.551Z,6.38
2022-11-29T08:05:48.415Z,6.38
2022-11-29T08:06:48.390Z,6.40
2022-11-29T08:07:48.432Z,6.40
2022-11-29T08:08:48.733Z,6.43
2022-11-29T08:09:48.490Z,6.41
2022-11-29T08:10:48.350Z,6.40
2022-11-29T08:11:48.343Z,6.44
2022-11-29T08:12:48.326Z,6.44
2022-11-29T08:13:49.111Z,6.44
2022-11-29T08:14:48.486Z,6.46
2022-11-29T08:15:48.310Z,6.41
2022-11-29T08:16:48.350Z,6.46
2022-11-29T08:17:48.285Z,6.46
2022-11-29T08:18:48.343Z,6.43
2022-11-29T08:19:48.307Z,6.43
2022-11-29T08:20:48.262Z,6.41
2022-11-29T08:21:48.237Z,6.46
2022-11-29T08:22:48.226Z,6.44
2022-11-29T08:23:48.228Z,6.44
2022-11-29T08:24:48.475Z,6.43
2022-11-29T08:25:48.217Z,6.48
2022-11-29T08:26:48.176Z,6.44
2022-11-29T08:27:48.176Z,6.46
2022-11-29T08:28:48.157Z,6.49
2022-11-29T08:29:48.168Z,6.51
2022-11-29T08:30:48.136Z,6.49
2022-11-29T08:31:48.211Z,6.49
2022-11-29T08:32:51.381Z,6.49
2022-11-29T08:33:48.116Z,6.48
2022-11-29T08:34:48.335Z,6.49
2022-11-29T08:35:48.149Z,6.48
2022-11-29T08:36:48.071Z,6.51
2022-11-29T08:37:48.079Z,6.51
2022-11-29T08:38:48.049Z,6.51
2022-11-29T08:39:48.039Z,6.52
2022-11-29T08:40:48.025Z,6.52
2022-11-29T08:41:48.040Z,6.52
2022-11-29T08:42:48.013Z,6.51
2022-11-29T08:43:48.011Z,6.54
2022-11-29T08:44:48.184Z,6.54
2022-11-29T08:45:48.014Z,6.54
2022-11-29T08:46:47.969Z,6.52
2022-11-29T08:47:47.963Z,6.54
2022-11-29T08:48:47.939Z,6.55
2022-11-29T08:49:47.942Z,6.54
2022-11-29T08:50:47.923Z,6.56
2022-11-29T08:51:47.963Z,6.56
2022-11-29T08:52:47.893Z,6.56
2022-11-29T08:53:47.903Z,6.58
2022-11-29T08:54:48.294Z,6.58
2022-11-29T08:55:47.891Z,6.62
2022-11-29T08:57:48.854Z,6.59
2022-11-29T08:58:47.824Z,6.58
2022-11-29T08:59:47.845Z,6.59
2022-11-29T09:00:47.899Z,6.61
2022-11-29T09:01:47.849Z,6.62
2022-11-29T09:02:47.787Z,6.62
2022-11-29T09:03:47.802Z,6.62
2022-11-29T09:04:47.776Z,6.61
2022-11-29T09:05:47.775Z,6.61
2022-11-29T09:06:47.757Z,6.61
2022-11-29T09:07:47.827Z,6.61
2022-11-29T09:08:47.731Z,6.59
2022-11-29T09:09:47.727Z,6.59
2022-11-29T09:10:47.706Z,6.61
2022-11-29T09:11:49.595Z,6.59
2022-11-29T09:12:47.698Z,6.61
2022-11-29T09:13:47.694Z,6.64
2022-11-29T09:14:47.660Z,6.64
2022-11-29T09:15:47.679Z,6.62
2022-11-29T09:16:47.707Z,6.66
2022-11-29T09:17:47.638Z,6.66
2022-11-29T09:18:51.640Z,6.64
2022-11-29T09:19:47.736Z,6.64
2022-11-29T09:20:47.606Z,6.64
2022-11-29T09:21:47.594Z,6.66
2022-11-29T09:22:47.579Z,6.67
2022-11-29T09:23:47.572Z,6.69
2022-11-29T09:24:47.769Z,6.70
2022-11-29T09:25:47.550Z,6.74
2022-11-29T09:26:47.553Z,6.76
2022-11-29T09:27:47.542Z,6.74
2022-11-29T09:28:47.520Z,6.79
2022-11-29T09:29:47.515Z,6.81
2022-11-29T09:30:47.496Z,6.84
2022-11-29T09:31:47.533Z,6.77
2022-11-29T09:32:47.479Z,6.79
2022-11-29T09:33:47.463Z,6.74
2022-11-29T09:34:47.704Z,6.77
2022-11-29T09:35:47.467Z,6.79
2022-11-29T09:36:47.424Z,6.84
2022-11-29T09:37:47.433Z,6.85
2022-11-29T09:38:47.400Z,6.88
2022-11-29T09:39:47.403Z,6.89
2022-11-29T09:40:47.393Z,6.91
2022-11-29T09:41:48.717Z,6.92
2022-11-29T09:42:47.363Z,6.94
2022-11-29T09:43:47.364Z,6.97
2022-11-29T09:44:47.603Z,6.92
2022-11-29T09:45:47.412Z,6.89
2022-11-29T09:46:47.372Z,6.89
2022-11-29T09:47:47.356Z,6.85
2022-11-29T09:48:47.295Z,6.79
2022-11-29T09:49:47.307Z,6.81
2022-11-29T09:50:47.274Z,6.77
2022-11-29T09:51:47.273Z,6.77
2022-11-29T09:52:47.269Z,6.79
2022-11-29T09:53:48.047Z,6.81
2022-11-29T09:54:47.633Z,6.81
2022-11-29T09:55:47.237Z,6.88
2022-11-29T09:56:47.246Z,6.91
2022-11-29T09:57:47.208Z,6.91
2022-11-29T09:58:47.194Z,6.88
2022-11-29T09:59:47.189Z,6.85
2022-11-29T10:00:47.194Z,6.88
2022-11-29T10:01:47.170Z,6.89
2022-11-29T10:02:47.228Z,6.89
2022-11-29T10:03:47.150Z,6.89
2022-11-29T10:04:47.300Z,6.94
2022-11-29T10:05:47.129Z,6.95
2022-11-29T10:06:47.107Z,6.98
2022-11-29T10:07:47.166Z,6.99
2022-11-29T10:08:47.080Z,6.97
2022-11-29T10:09:47.080Z,6.95
2022-11-29T10:10:47.080Z,6.98
2022-11-29T10:11:47.066Z,6.99
2022-11-29T10:12:47.045Z,7.05
2022-11-29T10:13:47.064Z,7.05
2022-11-29T10:14:47.428Z,7.06
2022-11-29T10:15:47.022Z,7.07
2022-11-29T10:16:47.093Z,7.03
2022-11-29T10:17:47.002Z,7.03
2022-11-29T10:18:47.193Z,6.97
2022-11-29T10:19:46.987Z,6.94
2022-11-29T10:20:49.269Z,6.89
2022-11-29T10:21:46.954Z,6.87
2022-11-29T10:22:46.934Z,6.81
2022-11-29T10:23:46.935Z,6.77
2022-11-29T10:24:47.154Z,6.74
2022-11-29T10:25:46.930Z,6.73
2022-11-29T10:26:46.896Z,6.71
2022-11-29T10:27:46.893Z,6.71
2022-11-29T10:28:46.874Z,6.70
2022-11-29T10:29:46.875Z,6.73
2022-11-29T10:30:46.953Z,6.74
2022-11-29T10:31:46.845Z,6.77
2022-11-29T10:32:46.827Z,6.77
2022-11-29T10:33:46.850Z,6.77
2022-11-29T10:34:47.131Z,6.79
2022-11-29T10:35:46.798Z,6.81
2022-11-29T10:36:46.795Z,6.84
2022-11-29T10:38:07.687Z,6.84
2022-11-29T10:38:47.768Z,6.85
2022-11-29T10:39:46.757Z,6.91
2022-11-29T10:40:46.747Z,6.91
2022-11-29T10:41:46.740Z,6.89
2022-11-29T10:42:46.717Z,6.89
2022-11-29T10:43:46.723Z,6.89
2022-11-29T10:44:47.187Z,6.88
2022-11-29T10:45:49.322Z,6.88
2022-11-29T10:46:46.681Z,6.85
2022-11-29T10:47:46.670Z,6.76
2022-11-29T10:48:46.653Z,6.73
2022-11-29T10:49:46.663Z,6.77
2022-11-29T10:50:46.629Z,6.79
2022-11-29T10:51:46.932Z,6.76
2022-11-29T10:52:46.621Z,6.79
2022-11-29T10:53:46.609Z,6.79
2022-11-29T10:54:46.732Z,6.77
2022-11-29T10:55:46.602Z,6.80
2022-11-29T10:56:46.568Z,6.85
2022-11-29T10:57:46.571Z,6.87
2022-11-29T10:58:46.552Z,6.91
2022-11-29T10:59:46.552Z,6.92
2022-11-29T11:00:46.529Z,6.97
2022-11-29T11:01:46.585Z,7.02
2022-11-29T11:02:46.505Z,7.03
2022-11-29T11:03:50.179Z,7.07
2022-11-29T11:04:47.801Z,7.05
2022-11-29T11:05:46.501Z,7.02
2022-11-29T11:06:46.452Z,6.94
2022-11-29T11:07:46.492Z,6.95
2022-11-29T11:08:46.444Z,6.95
2022-11-29T11:09:46.435Z,6.97
2022-11-29T11:10:52.510Z,6.98
2022-11-29T11:11:47.426Z,7.05
2022-11-29T11:12:46.404Z,7.09
2022-11-29T11:13:46.394Z,7.06
2022-11-29T11:14:47.625Z,7.07
2022-11-29T11:15:46.386Z,7.09
2022-11-29T11:16:46.426Z,7.07
2022-11-29T11:17:46.365Z,7.12
2022-11-29T11:18:46.834Z,7.15
2022-11-29T11:19:46.336Z,7.10
2022-11-29T11:20:46.317Z,7.09
2022-11-29T11:21:46.324Z,7.10
2022-11-29T11:22:46.597Z,7.17
2022-11-29T11:23:46.297Z,7.17
2022-11-29T11:24:46.531Z,7.17
2022-11-29T11:25:46.269Z,7.13
2022-11-29T11:26:46.261Z,7.13
2022-11-29T11:27:46.258Z,7.15
2022-11-29T11:28:46.259Z,7.16
2022-11-29T11:29:46.229Z,7.20
2022-11-29T11:30:46.239Z,7.20
2022-11-29T11:31:46.200Z,7.16
2022-11-29T11:32:46.204Z,7.24
2022-11-29T11:33:46.179Z,7.28
2022-11-29T11:34:46.579Z,7.31
2022-11-29T11:35:46.261Z,7.37
2022-11-29T11:36:46.153Z,7.34
2022-11-29T11:37:46.150Z,7.34
2022-11-29T11:38:46.140Z,7.42
2022-11-29T11:39:46.177Z,7.50
2022-11-29T11:40:46.142Z,7.53
2022-11-29T11:41:46.092Z,7.61
2022-11-29T11:42:46.137Z,7.55
2022-11-29T11:43:46.063Z,7.50
2022-11-29T11:44:47.319Z,7.42
2022-11-29T11:45:46.113Z,7.45
2022-11-29T11:46:46.115Z,7.46
2022-11-29T11:47:46.033Z,7.49
2022-11-29T11:48:46.033Z,7.53
2022-11-29T11:49:46.005Z,7.50
2022-11-29T11:50:46.003Z,7.58
2022-11-29T11:51:45.993Z,7.63
2022-11-29T11:52:50.342Z,7.64
2022-11-29T11:53:45.965Z,7.64
2022-11-29T11:54:46.246Z,7.69
2022-11-29T11:55:45.945Z,7.71
2022-11-29T11:56:46.034Z,7.72
2022-11-29T11:57:45.916Z,7.80
2022-11-29T11:58:45.916Z,7.77
2022-11-29T11:59:45.900Z,7.63
2022-11-29T12:01:47.022Z,7.58
2022-11-29T12:02:45.954Z,7.53
2022-11-29T12:03:45.860Z,7.55
2022-11-29T12:04:45.994Z,7.60
2022-11-29T12:05:46.461Z,7.57
2022-11-29T12:06:45.839Z,7.63
2022-11-29T12:08:07.394Z,7.64
2022-11-29T12:08:46.900Z,7.61
2022-11-29T12:09:45.798Z,7.63
2022-11-29T12:10:45.790Z,7.61
2022-11-29T12:11:45.769Z,7.63
2022-11-29T12:12:45.770Z,7.72
2022-11-29T12:13:45.751Z,7.74
2022-11-29T12:14:46.128Z,7.82
2022-11-29T12:15:45.803Z,7.83
2022-11-29T12:16:45.735Z,7.87
2022-11-29T12:17:45.840Z,7.87
2022-11-29T12:18:45.715Z,7.90
2022-11-29T12:19:45.690Z,7.85
2022-11-29T12:20:45.691Z,7.82
2022-11-29T12:21:45.664Z,7.83
2022-11-29T12:22:48.508Z,7.82
2022-11-29T12:23:45.648Z,7.87
2022-11-29T12:24:45.856Z,7.89
2022-11-29T12:25:45.723Z,7.90
2022-11-29T12:27:01.059Z,7.86
2022-11-29T12:27:46.615Z,7.79
2022-11-29T12:28:45.609Z,7.89
2022-11-29T12:29:45.594Z,7.92
2022-11-29T12:30:45.645Z,7.97
2022-11-29T12:31:45.555Z,7.97
2022-11-29T12:32:45.567Z,7.98
2022-11-29T12:33:45.541Z,7.92
2022-11-29T12:34:45.868Z,7.93
2022-11-29T12:35:45.526Z,7.93
2022-11-29T12:36:45.516Z,7.90
2022-11-29T12:37:45.496Z,7.93
2022-11-29T12:38:45.515Z,7.98
2022-11-29T12:39:45.489Z,8.05
2022-11-29T12:40:45.476Z,8.07
2022-11-29T12:41:48.334Z,8.04
2022-11-29T12:42:46.455Z,8.02
2022-11-29T12:43:45.426Z,8.05
2022-11-29T12:44:46.077Z,8.08
2022-11-29T12:45:45.408Z,8.04
2022-11-29T12:46:45.462Z,8.01
2022-11-29T12:47:51.515Z,7.97
2022-11-29T12:48:46.388Z,7.95
2022-11-29T12:49:45.379Z,7.97
2022-11-29T12:50:45.369Z,8.00
2022-11-29T12:51:45.359Z,8.01
2022-11-29T12:52:45.351Z,7.98
2022-11-29T12:53:45.410Z,7.95
2022-11-29T12:54:45.707Z,7.95
2022-11-29T12:55:45.300Z,7.93
2022-11-29T12:56:45.300Z,8.00
2022-11-29T12:57:45.302Z,8.02
2022-11-29T12:58:46.169Z,8.08
2022-11-29T12:59:45.260Z,8.07
2022-11-29T13:00:45.261Z,8.01
2022-11-29T13:01:45.278Z,8.01
2022-11-29T13:02:45.462Z,8.04
2022-11-29T13:03:45.213Z,8.10
2022-11-29T13:04:45.695Z,8.10
2022-11-29T13:05:45.200Z,8.04
2022-11-29T13:06:45.216Z,8.02
2022-11-29T13:07:45.349Z,8.07
2022-11-29T13:08:45.187Z,7.95
2022-11-29T13:09:45.486Z,7.97
2022-11-29T13:10:45.161Z,8.02
2022-11-29T13:11:45.145Z,8.10
2022-11-29T13:12:45.145Z,8.12
2022-11-29T13:13:45.134Z,8.12
2022-11-29T13:14:45.148Z,8.10
2022-11-29T13:15:45.195Z,8.10
2022-11-29T13:16:45.432Z,8.02
2022-11-29T13:17:45.068Z,7.98
2022-11-29T13:18:45.066Z,8.01
2022-11-29T13:19:45.048Z,7.95
2022-11-29T13:20:45.056Z,7.92